sensor_id;sensor_type;location;lat;lon;timestamp;P1;durP1;ratioP1;P2;durP2;ratioP2
12163;SDS011;6145;50.192;10.064;2023-04-24T00:01:01;1.87;;;1.77;;
12163;SDS011;6145;50.192;10.064;2023-04-24T00:03:28;1.70;;;1.60;;
12163;SDS011;6145;50.192;10.064;2023-04-24T00:05:55;2.77;;;2.10;;
12163;SDS011;6145;50.192;10.064;2023-04-24T00:08:22;1.67;;;1.57;;
12163;SDS011;6145;50.192;10.064;2023-04-24T00:10:48;2.57;;;1.73;;
12163;SDS011;6145;50.192;10.064;2023-04-24T00:13:17;2.67;;;1.80;;
12163;SDS011;6145;50.192;10.064;2023-04-24T00:15:45;2.70;;;2.10;;
12163;SDS011;6145;50.192;10.064;2023-04-24T00:18:12;1.50;;;1.40;;
12163;SDS011;6145;50.192;10.064;2023-04-24T00:20:39;1.93;;;1.70;;
12163;SDS011;6145;50.192;10.064;2023-04-24T00:23:05;2.03;;;1.90;;
12163;SDS011;6145;50.192;10.064;2023-04-24T00:25:32;2.37;;;2.10;;
12163;SDS011;6145;50.192;10.064;2023-04-24T00:27:59;2.43;;;1.87;;
12163;SDS011;6145;50.192;10.064;2023-04-24T00:30:26;2.83;;;1.97;;
12163;SDS011;6145;50.192;10.064;2023-04-24T00:32:54;2.00;;;1.80;;
12163;SDS011;6145;50.192;10.064;2023-04-24T00:35:21;3.07;;;2.03;;
12163;SDS011;6145;50.192;10.064;2023-04-24T00:37:48;2.70;;;2.00;;
12163;SDS011;6145;50.192;10.064;2023-04-24T00:40:15;2.10;;;1.90;;
12163;SDS011;6145;50.192;10.064;2023-04-24T00:42:41;2.17;;;1.73;;
12163;SDS011;6145;50.192;10.064;2023-04-24T00:45:10;2.67;;;2.20;;
12163;SDS011;6145;50.192;10.064;2023-04-24T00:47:37;2.13;;;1.90;;
12163;SDS011;6145;50.192;10.064;2023-04-24T00:50:06;2.33;;;1.97;;
12163;SDS011;6145;50.192;10.064;2023-04-24T00:52:33;2.37;;;2.03;;
12163;SDS011;6145;50.192;10.064;2023-04-24T00:55:01;1.80;;;1.70;;
12163;SDS011;6145;50.192;10.064;2023-04-24T00:57:28;2.43;;;2.20;;
12163;SDS011;6145;50.192;10.064;2023-04-24T00:59:55;3.93;;;2.37;;
12163;SDS011;6145;50.192;10.064;2023-04-24T01:02:21;1.90;;;1.70;;
12163;SDS011;6145;50.192;10.064;2023-04-24T01:04:49;2.97;;;2.13;;
12163;SDS011;6145;50.192;10.064;2023-04-24T01:07:18;3.30;;;2.00;;
12163;SDS011;6145;50.192;10.064;2023-04-24T01:09:46;4.43;;;2.20;;
12163;SDS011;6145;50.192;10.064;2023-04-24T01:12:16;2.30;;;2.10;;
12163;SDS011;6145;50.192;10.064;2023-04-24T01:14:43;3.17;;;2.00;;
12163;SDS011;6145;50.192;10.064;2023-04-24T01:17:10;3.37;;;2.50;;
12163;SDS011;6145;50.192;10.064;2023-04-24T01:19:37;2.90;;;1.87;;
12163;SDS011;6145;50.192;10.064;2023-04-24T01:22:08;3.67;;;2.27;;
12163;SDS011;6145;50.192;10.064;2023-04-24T01:24:36;3.13;;;2.00;;
12163;SDS011;6145;50.192;10.064;2023-04-24T01:27:03;3.40;;;2.23;;
12163;SDS011;6145;50.192;10.064;2023-04-24T01:29:30;3.23;;;1.83;;
12163;SDS011;6145;50.192;10.064;2023-04-24T01:31:57;2.27;;;1.83;;
12163;SDS011;6145;50.192;10.064;2023-04-24T01:34:24;3.73;;;1.90;;
12163;SDS011;6145;50.192;10.064;2023-04-24T01:36:51;3.00;;;1.77;;
12163;SDS011;6145;50.192;10.064;2023-04-24T01:39:20;1.83;;;1.73;;
12163;SDS011;6145;50.192;10.064;2023-04-24T01:41:48;1.93;;;1.73;;
12163;SDS011;6145;50.192;10.064;2023-04-24T01:44:15;1.80;;;1.70;;
12163;SDS011;6145;50.192;10.064;2023-04-24T01:46:42;3.40;;;2.13;;
12163;SDS011;6145;50.192;10.064;2023-04-24T01:49:09;2.17;;;2.00;;
12163;SDS011;6145;50.192;10.064;2023-04-24T01:51:36;2.00;;;1.63;;
12163;SDS011;6145;50.192;10.064;2023-04-24T01:54:03;3.17;;;1.83;;
12163;SDS011;6145;50.192;10.064;2023-04-24T01:56:32;1.43;;;1.30;;
12163;SDS011;6145;50.192;10.064;2023-04-24T01:59:00;3.07;;;2.00;;
12163;SDS011;6145;50.192;10.064;2023-04-24T02:01:32;2.63;;;1.87;;
12163;SDS011;6145;50.192;10.064;2023-04-24T02:04:01;3.37;;;1.67;;
12163;SDS011;6145;50.192;10.064;2023-04-24T02:06:28;2.33;;;1.80;;
12163;SDS011;6145;50.192;10.064;2023-04-24T02:08:56;1.67;;;1.57;;
12163;SDS011;6145;50.192;10.064;2023-04-24T02:11:23;1.97;;;1.70;;
12163;SDS011;6145;50.192;10.064;2023-04-24T02:13:51;3.67;;;1.57;;
12163;SDS011;6145;50.192;10.064;2023-04-24T02:16:18;1.87;;;1.57;;
12163;SDS011;6145;50.192;10.064;2023-04-24T02:18:45;2.33;;;1.73;;
12163;SDS011;6145;50.192;10.064;2023-04-24T02:21:11;1.80;;;1.70;;
12163;SDS011;6145;50.192;10.064;2023-04-24T02:23:38;2.03;;;1.47;;
12163;SDS011;6145;50.192;10.064;2023-04-24T02:26:05;2.03;;;1.63;;
12163;SDS011;6145;50.192;10.064;2023-04-24T02:28:32;2.17;;;1.60;;
12163;SDS011;6145;50.192;10.064;2023-04-24T02:31:00;2.90;;;1.60;;
12163;SDS011;6145;50.192;10.064;2023-04-24T02:33:27;3.30;;;1.93;;
12163;SDS011;6145;50.192;10.064;2023-04-24T02:35:54;2.03;;;1.83;;
12163;SDS011;6145;50.192;10.064;2023-04-24T02:38:21;1.60;;;1.50;;
12163;SDS011;6145;50.192;10.064;2023-04-24T02:40:48;2.33;;;1.63;;
12163;SDS011;6145;50.192;10.064;2023-04-24T02:43:15;3.40;;;1.47;;
12163;SDS011;6145;50.192;10.064;2023-04-24T02:45:41;1.30;;;1.20;;
12163;SDS011;6145;50.192;10.064;2023-04-24T02:48:09;2.70;;;1.50;;
12163;SDS011;6145;50.192;10.064;2023-04-24T02:50:36;1.63;;;1.50;;
12163;SDS011;6145;50.192;10.064;2023-04-24T02:53:03;1.60;;;1.50;;
12163;SDS011;6145;50.192;10.064;2023-04-24T02:55:30;5.13;;;1.80;;
12163;SDS011;6145;50.192;10.064;2023-04-24T02:57:56;2.03;;;1.33;;
12163;SDS011;6145;50.192;10.064;2023-04-24T03:00:23;5.10;;;1.63;;
12163;SDS011;6145;50.192;10.064;2023-04-24T03:02:50;1.30;;;1.20;;
12163;SDS011;6145;50.192;10.064;2023-04-24T03:05:20;1.53;;;1.43;;
12163;SDS011;6145;50.192;10.064;2023-04-24T03:07:47;1.50;;;1.33;;
12163;SDS011;6145;50.192;10.064;2023-04-24T03:10:14;2.53;;;1.40;;
12163;SDS011;6145;50.192;10.064;2023-04-24T03:12:40;1.50;;;1.40;;
12163;SDS011;6145;50.192;10.064;2023-04-24T03:15:07;2.00;;;1.20;;
12163;SDS011;6145;50.192;10.064;2023-04-24T03:17:35;2.67;;;1.53;;
12163;SDS011;6145;50.192;10.064;2023-04-24T03:20:02;2.57;;;1.40;;
12163;SDS011;6145;50.192;10.064;2023-04-24T03:22:31;3.07;;;1.63;;
12163;SDS011;6145;50.192;10.064;2023-04-24T03:24:58;1.70;;;1.20;;
12163;SDS011;6145;50.192;10.064;2023-04-24T03:27:25;1.40;;;1.20;;
12163;SDS011;6145;50.192;10.064;2023-04-24T03:29:52;1.87;;;1.47;;
12163;SDS011;6145;50.192;10.064;2023-04-24T03:32:20;2.10;;;1.50;;
12163;SDS011;6145;50.192;10.064;2023-04-24T03:34:47;2.40;;;1.40;;
12163;SDS011;6145;50.192;10.064;2023-04-24T03:37:14;1.57;;;1.47;;
12163;SDS011;6145;50.192;10.064;2023-04-24T03:39:42;1.30;;;1.20;;
12163;SDS011;6145;50.192;10.064;2023-04-24T03:42:09;3.07;;;1.50;;
12163;SDS011;6145;50.192;10.064;2023-04-24T03:44:36;1.57;;;1.30;;
12163;SDS011;6145;50.192;10.064;2023-04-24T03:47:02;3.03;;;1.27;;
12163;SDS011;6145;50.192;10.064;2023-04-24T03:49:29;2.83;;;1.27;;
12163;SDS011;6145;50.192;10.064;2023-04-24T03:51:56;2.03;;;1.40;;
12163;SDS011;6145;50.192;10.064;2023-04-24T03:54:23;1.97;;;1.20;;
12163;SDS011;6145;50.192;10.064;2023-04-24T03:56:51;3.87;;;1.53;;
12163;SDS011;6145;50.192;10.064;2023-04-24T03:59:18;1.63;;;1.20;;
12163;SDS011;6145;50.192;10.064;2023-04-24T04:01:45;4.37;;;1.60;;
12163;SDS011;6145;50.192;10.064;2023-04-24T04:04:12;1.93;;;1.30;;
12163;SDS011;6145;50.192;10.064;2023-04-24T04:06:39;2.17;;;1.40;;
12163;SDS011;6145;50.192;10.064;2023-04-24T04:09:06;3.40;;;1.47;;
12163;SDS011;6145;50.192;10.064;2023-04-24T04:11:33;2.13;;;1.60;;
12163;SDS011;6145;50.192;10.064;2023-04-24T04:14:02;1.53;;;1.43;;
12163;SDS011;6145;50.192;10.064;2023-04-24T04:16:29;2.20;;;1.63;;
12163;SDS011;6145;50.192;10.064;2023-04-24T04:18:55;4.47;;;1.40;;
12163;SDS011;6145;50.192;10.064;2023-04-24T04:21:22;1.67;;;1.47;;
12163;SDS011;6145;50.192;10.064;2023-04-24T04:23:49;4.03;;;1.53;;
12163;SDS011;6145;50.192;10.064;2023-04-24T04:26:16;2.67;;;1.27;;
12163;SDS011;6145;50.192;10.064;2023-04-24T04:28:44;1.33;;;1.20;;
12163;SDS011;6145;50.192;10.064;2023-04-24T04:31:14;2.40;;;1.73;;
12163;SDS011;6145;50.192;10.064;2023-04-24T04:33:40;2.73;;;1.40;;
12163;SDS011;6145;50.192;10.064;2023-04-24T04:36:07;2.03;;;1.40;;
12163;SDS011;6145;50.192;10.064;2023-04-24T04:38:34;1.90;;;1.60;;
12163;SDS011;6145;50.192;10.064;2023-04-24T04:41:02;3.97;;;1.87;;
12163;SDS011;6145;50.192;10.064;2023-04-24T04:43:28;1.87;;;1.30;;
12163;SDS011;6145;50.192;10.064;2023-04-24T04:45:56;4.00;;;1.53;;
12163;SDS011;6145;50.192;10.064;2023-04-24T04:48:27;3.43;;;1.70;;
12163;SDS011;6145;50.192;10.064;2023-04-24T04:50:53;1.43;;;1.20;;
12163;SDS011;6145;50.192;10.064;2023-04-24T04:53:20;3.43;;;1.50;;
12163;SDS011;6145;50.192;10.064;2023-04-24T04:55:47;1.57;;;1.40;;
12163;SDS011;6145;50.192;10.064;2023-04-24T04:58:14;2.13;;;1.50;;
12163;SDS011;6145;50.192;10.064;2023-04-24T05:00:41;1.27;;;1.10;;
12163;SDS011;6145;50.192;10.064;2023-04-24T05:03:08;2.37;;;1.47;;
12163;SDS011;6145;50.192;10.064;2023-04-24T05:05:36;1.90;;;1.30;;
12163;SDS011;6145;50.192;10.064;2023-04-24T05:08:05;1.40;;;1.30;;
12163;SDS011;6145;50.192;10.064;2023-04-24T05:10:32;2.53;;;1.40;;
12163;SDS011;6145;50.192;10.064;2023-04-24T05:13:01;2.37;;;2.07;;
12163;SDS011;6145;50.192;10.064;2023-04-24T05:15:28;3.57;;;1.40;;
12163;SDS011;6145;50.192;10.064;2023-04-24T05:17:55;1.50;;;1.40;;
12163;SDS011;6145;50.192;10.064;2023-04-24T05:20:22;3.17;;;1.60;;
12163;SDS011;6145;50.192;10.064;2023-04-24T05:22:51;1.53;;;1.40;;
12163;SDS011;6145;50.192;10.064;2023-04-24T05:25:17;1.67;;;1.57;;
12163;SDS011;6145;50.192;10.064;2023-04-24T05:27:44;2.33;;;1.67;;
12163;SDS011;6145;50.192;10.064;2023-04-24T05:30:12;1.90;;;1.37;;
12163;SDS011;6145;50.192;10.064;2023-04-24T05:32:39;2.37;;;1.57;;
12163;SDS011;6145;50.192;10.064;2023-04-24T05:35:06;2.30;;;1.43;;
12163;SDS011;6145;50.192;10.064;2023-04-24T05:37:33;2.70;;;1.40;;
12163;SDS011;6145;50.192;10.064;2023-04-24T05:40:01;3.13;;;1.77;;
12163;SDS011;6145;50.192;10.064;2023-04-24T05:42:30;1.33;;;1.13;;
12163;SDS011;6145;50.192;10.064;2023-04-24T05:44:57;2.90;;;1.40;;
12163;SDS011;6145;50.192;10.064;2023-04-24T05:47:24;2.07;;;1.57;;
12163;SDS011;6145;50.192;10.064;2023-04-24T05:49:51;1.50;;;1.40;;
12163;SDS011;6145;50.192;10.064;2023-04-24T05:52:18;2.13;;;1.50;;
12163;SDS011;6145;50.192;10.064;2023-04-24T05:54:45;1.67;;;1.57;;
12163;SDS011;6145;50.192;10.064;2023-04-24T05:57:13;1.77;;;1.47;;
12163;SDS011;6145;50.192;10.064;2023-04-24T05:59:40;2.43;;;1.27;;
12163;SDS011;6145;50.192;10.064;2023-04-24T06:02:07;1.40;;;1.30;;
12163;SDS011;6145;50.192;10.064;2023-04-24T06:04:34;1.70;;;1.60;;
12163;SDS011;6145;50.192;10.064;2023-04-24T06:07:00;1.20;;;1.10;;
12163;SDS011;6145;50.192;10.064;2023-04-24T06:09:27;2.53;;;1.57;;
12163;SDS011;6145;50.192;10.064;2023-04-24T06:11:54;1.43;;;1.30;;
12163;SDS011;6145;50.192;10.064;2023-04-24T06:14:22;2.40;;;1.30;;
12163;SDS011;6145;50.192;10.064;2023-04-24T06:16:49;1.60;;;1.50;;
12163;SDS011;6145;50.192;10.064;2023-04-24T06:19:16;3.10;;;1.47;;
12163;SDS011;6145;50.192;10.064;2023-04-24T06:21:46;2.77;;;1.50;;
12163;SDS011;6145;50.192;10.064;2023-04-24T06:24:13;1.53;;;1.43;;
12163;SDS011;6145;50.192;10.064;2023-04-24T06:26:40;1.70;;;1.33;;
12163;SDS011;6145;50.192;10.064;2023-04-24T06:29:07;2.67;;;2.47;;
12163;SDS011;6145;50.192;10.064;2023-04-24T06:31:35;4.57;;;4.20;;
12163;SDS011;6145;50.192;10.064;2023-04-24T06:34:02;2.77;;;1.30;;
12163;SDS011;6145;50.192;10.064;2023-04-24T06:36:29;7.20;;;6.90;;
12163;SDS011;6145;50.192;10.064;2023-04-24T06:38:57;11.53;;;11.13;;
12163;SDS011;6145;50.192;10.064;2023-04-24T06:41:24;13.77;;;13.27;;
12163;SDS011;6145;50.192;10.064;2023-04-24T06:43:50;12.40;;;11.97;;
12163;SDS011;6145;50.192;10.064;2023-04-24T06:46:17;14.87;;;14.30;;
12163;SDS011;6145;50.192;10.064;2023-04-24T06:48:48;10.40;;;10.00;;
12163;SDS011;6145;50.192;10.064;2023-04-24T06:51:15;5.27;;;4.97;;
12163;SDS011;6145;50.192;10.064;2023-04-24T06:53:43;3.47;;;3.20;;
12163;SDS011;6145;50.192;10.064;2023-04-24T06:56:10;1.60;;;1.30;;
12163;SDS011;6145;50.192;10.064;2023-04-24T06:58:37;1.70;;;1.60;;
12163;SDS011;6145;50.192;10.064;2023-04-24T07:01:04;1.27;;;1.20;;
12163;SDS011;6145;50.192;10.064;2023-04-24T07:03:37;1.80;;;1.70;;
12163;SDS011;6145;50.192;10.064;2023-04-24T07:06:05;2.20;;;1.50;;
12163;SDS011;6145;50.192;10.064;2023-04-24T07:08:32;2.83;;;1.60;;
12163;SDS011;6145;50.192;10.064;2023-04-24T07:11:00;2.43;;;1.73;;
12163;SDS011;6145;50.192;10.064;2023-04-24T07:13:27;3.50;;;1.90;;
12163;SDS011;6145;50.192;10.064;2023-04-24T07:15:54;1.90;;;1.80;;
12163;SDS011;6145;50.192;10.064;2023-04-24T07:18:21;2.20;;;2.00;;
12163;SDS011;6145;50.192;10.064;2023-04-24T07:20:48;2.53;;;1.80;;
12163;SDS011;6145;50.192;10.064;2023-04-24T07:23:17;3.77;;;1.90;;
12163;SDS011;6145;50.192;10.064;2023-04-24T07:25:44;1.70;;;1.60;;
12163;SDS011;6145;50.192;10.064;2023-04-24T07:28:10;1.73;;;1.50;;
12163;SDS011;6145;50.192;10.064;2023-04-24T07:30:43;1.67;;;1.57;;
12163;SDS011;6145;50.192;10.064;2023-04-24T07:33:15;2.10;;;1.90;;
12163;SDS011;6145;50.192;10.064;2023-04-24T07:35:42;1.60;;;1.50;;
12163;SDS011;6145;50.192;10.064;2023-04-24T07:38:09;2.23;;;1.87;;
12163;SDS011;6145;50.192;10.064;2023-04-24T07:40:37;2.73;;;2.17;;
12163;SDS011;6145;50.192;10.064;2023-04-24T07:43:04;2.43;;;1.80;;
12163;SDS011;6145;50.192;10.064;2023-04-24T07:45:31;1.90;;;1.80;;
12163;SDS011;6145;50.192;10.064;2023-04-24T07:48:01;1.70;;;1.60;;
12163;SDS011;6145;50.192;10.064;2023-04-24T07:50:27;2.00;;;1.83;;
12163;SDS011;6145;50.192;10.064;2023-04-24T07:52:54;1.97;;;1.87;;
12163;SDS011;6145;50.192;10.064;2023-04-24T07:55:21;3.93;;;1.90;;
12163;SDS011;6145;50.192;10.064;2023-04-24T07:57:49;1.50;;;1.40;;
12163;SDS011;6145;50.192;10.064;2023-04-24T08:00:16;1.80;;;1.70;;
12163;SDS011;6145;50.192;10.064;2023-04-24T08:02:43;1.57;;;1.47;;
12163;SDS011;6145;50.192;10.064;2023-04-24T08:05:10;2.50;;;1.70;;
12163;SDS011;6145;50.192;10.064;2023-04-24T08:07:36;1.80;;;1.70;;
12163;SDS011;6145;50.192;10.064;2023-04-24T08:10:05;1.80;;;1.70;;
12163;SDS011;6145;50.192;10.064;2023-04-24T08:12:32;2.00;;;1.80;;
12163;SDS011;6145;50.192;10.064;2023-04-24T08:15:01;2.43;;;1.90;;
12163;SDS011;6145;50.192;10.064;2023-04-24T08:17:27;2.40;;;2.20;;
12163;SDS011;6145;50.192;10.064;2023-04-24T08:19:54;1.97;;;1.77;;
12163;SDS011;6145;50.192;10.064;2023-04-24T08:22:26;2.63;;;1.60;;
12163;SDS011;6145;50.192;10.064;2023-04-24T08:24:53;2.10;;;1.50;;
12163;SDS011;6145;50.192;10.064;2023-04-24T08:27:21;2.20;;;1.63;;
12163;SDS011;6145;50.192;10.064;2023-04-24T08:29:47;2.07;;;1.97;;
12163;SDS011;6145;50.192;10.064;2023-04-24T08:32:16;1.63;;;1.53;;
12163;SDS011;6145;50.192;10.064;2023-04-24T08:34:43;3.10;;;1.83;;
12163;SDS011;6145;50.192;10.064;2023-04-24T08:37:10;2.23;;;1.80;;
12163;SDS011;6145;50.192;10.064;2023-04-24T08:39:37;1.67;;;1.57;;
12163;SDS011;6145;50.192;10.064;2023-04-24T08:42:05;1.60;;;1.50;;
12163;SDS011;6145;50.192;10.064;2023-04-24T08:44:33;1.90;;;1.70;;
12163;SDS011;6145;50.192;10.064;2023-04-24T08:47:00;2.23;;;1.63;;
12163;SDS011;6145;50.192;10.064;2023-04-24T08:49:29;1.83;;;1.70;;
12163;SDS011;6145;50.192;10.064;2023-04-24T08:51:57;1.63;;;1.53;;
12163;SDS011;6145;50.192;10.064;2023-04-24T08:54:24;2.70;;;1.77;;
12163;SDS011;6145;50.192;10.064;2023-04-24T08:56:51;2.37;;;1.77;;
12163;SDS011;6145;50.192;10.064;2023-04-24T08:59:21;2.33;;;1.80;;
12163;SDS011;6145;50.192;10.064;2023-04-24T09:01:48;2.13;;;1.83;;
12163;SDS011;6145;50.192;10.064;2023-04-24T09:04:17;2.07;;;1.70;;
12163;SDS011;6145;50.192;10.064;2023-04-24T09:06:48;2.27;;;1.87;;
12163;SDS011;6145;50.192;10.064;2023-04-24T09:09:15;2.30;;;2.10;;
12163;SDS011;6145;50.192;10.064;2023-04-24T09:11:43;2.40;;;2.00;;
12163;SDS011;6145;50.192;10.064;2023-04-24T09:14:11;2.40;;;2.00;;
12163;SDS011;6145;50.192;10.064;2023-04-24T09:16:37;3.37;;;1.97;;
12163;SDS011;6145;50.192;10.064;2023-04-24T09:19:04;2.20;;;2.00;;
12163;SDS011;6145;50.192;10.064;2023-04-24T09:21:31;2.40;;;1.80;;
12163;SDS011;6145;50.192;10.064;2023-04-24T09:24:01;1.90;;;1.80;;
12163;SDS011;6145;50.192;10.064;2023-04-24T09:26:29;2.13;;;1.60;;
12163;SDS011;6145;50.192;10.064;2023-04-24T09:28:58;2.23;;;2.03;;
12163;SDS011;6145;50.192;10.064;2023-04-24T09:31:26;2.10;;;1.90;;
12163;SDS011;6145;50.192;10.064;2023-04-24T09:33:55;2.10;;;1.67;;
12163;SDS011;6145;50.192;10.064;2023-04-24T09:36:29;1.80;;;1.70;;
12163;SDS011;6145;50.192;10.064;2023-04-24T09:38:58;2.30;;;2.07;;
12163;SDS011;6145;50.192;10.064;2023-04-24T09:41:27;2.00;;;1.80;;
12163;SDS011;6145;50.192;10.064;2023-04-24T09:43:54;2.00;;;1.80;;
12163;SDS011;6145;50.192;10.064;2023-04-24T09:46:28;1.80;;;1.70;;
12163;SDS011;6145;50.192;10.064;2023-04-24T09:51:35;2.40;;;2.20;;
12163;SDS011;6145;50.192;10.064;2023-04-24T09:54:03;2.83;;;2.10;;
12163;SDS011;6145;50.192;10.064;2023-04-24T09:56:33;3.43;;;2.43;;
12163;SDS011;6145;50.192;10.064;2023-04-24T09:59:05;10.70;;;8.53;;
12163;SDS011;6145;50.192;10.064;2023-04-24T10:01:33;40.13;;;6.97;;
12163;SDS011;6145;50.192;10.064;2023-04-24T10:04:06;36.60;;;6.33;;
12163;SDS011;6145;50.192;10.064;2023-04-24T10:06:33;36.53;;;6.43;;
12163;SDS011;6145;50.192;10.064;2023-04-24T10:09:00;8.73;;;2.50;;
12163;SDS011;6145;50.192;10.064;2023-04-24T10:11:28;8.20;;;2.40;;
12163;SDS011;6145;50.192;10.064;2023-04-24T10:13:57;2.37;;;2.03;;
12163;SDS011;6145;50.192;10.064;2023-04-24T10:16:24;2.00;;;1.90;;
12163;SDS011;6145;50.192;10.064;2023-04-24T10:18:53;2.87;;;2.20;;
12163;SDS011;6145;50.192;10.064;2023-04-24T10:21:21;1.90;;;1.80;;
12163;SDS011;6145;50.192;10.064;2023-04-24T10:23:48;2.17;;;1.93;;
12163;SDS011;6145;50.192;10.064;2023-04-24T10:26:16;2.17;;;1.97;;
12163;SDS011;6145;50.192;10.064;2023-04-24T10:28:45;3.33;;;2.13;;
12163;SDS011;6145;50.192;10.064;2023-04-24T10:31:13;2.13;;;1.93;;
12163;SDS011;6145;50.192;10.064;2023-04-24T10:33:41;2.30;;;2.03;;
12163;SDS011;6145;50.192;10.064;2023-04-24T10:36:09;2.57;;;1.87;;
12163;SDS011;6145;50.192;10.064;2023-04-24T10:38:38;2.27;;;2.07;;
12163;SDS011;6145;50.192;10.064;2023-04-24T10:41:07;2.80;;;2.40;;
12163;SDS011;6145;50.192;10.064;2023-04-24T10:43:41;1.87;;;1.77;;
12163;SDS011;6145;50.192;10.064;2023-04-24T10:46:08;2.07;;;1.80;;
12163;SDS011;6145;50.192;10.064;2023-04-24T10:48:37;2.70;;;2.10;;
12163;SDS011;6145;50.192;10.064;2023-04-24T10:51:17;2.53;;;2.33;;
12163;SDS011;6145;50.192;10.064;2023-04-24T10:53:47;2.57;;;2.37;;
12163;SDS011;6145;50.192;10.064;2023-04-24T10:56:16;2.63;;;1.97;;
12163;SDS011;6145;50.192;10.064;2023-04-24T10:58:44;2.67;;;2.40;;
12163;SDS011;6145;50.192;10.064;2023-04-24T11:01:24;2.03;;;1.90;;
12163;SDS011;6145;50.192;10.064;2023-04-24T11:03:55;2.13;;;1.93;;
12163;SDS011;6145;50.192;10.064;2023-04-24T11:06:29;2.10;;;1.90;;
12163;SDS011;6145;50.192;10.064;2023-04-24T11:09:01;3.70;;;1.83;;
12163;SDS011;6145;50.192;10.064;2023-04-24T11:11:30;2.00;;;1.90;;
12163;SDS011;6145;50.192;10.064;2023-04-24T11:14:01;2.23;;;1.90;;
12163;SDS011;6145;50.192;10.064;2023-04-24T11:19:20;2.33;;;2.13;;
12163;SDS011;6145;50.192;10.064;2023-04-24T11:21:54;2.93;;;2.20;;
12163;SDS011;6145;50.192;10.064;2023-04-24T11:24:30;2.50;;;2.30;;
12163;SDS011;6145;50.192;10.064;2023-04-24T11:26:59;2.73;;;1.90;;
12163;SDS011;6145;50.192;10.064;2023-04-24T11:29:44;2.40;;;2.27;;
12163;SDS011;6145;50.192;10.064;2023-04-24T11:32:15;2.70;;;2.20;;
12163;SDS011;6145;50.192;10.064;2023-04-24T11:34:52;2.33;;;2.13;;
12163;SDS011;6145;50.192;10.064;2023-04-24T11:37:21;2.63;;;2.10;;
12163;SDS011;6145;50.192;10.064;2023-04-24T11:39:50;2.30;;;2.10;;
12163;SDS011;6145;50.192;10.064;2023-04-24T11:42:17;2.20;;;2.00;;
12163;SDS011;6145;50.192;10.064;2023-04-24T11:44:45;1.90;;;1.80;;
12163;SDS011;6145;50.192;10.064;2023-04-24T11:47:14;1.90;;;1.80;;
12163;SDS011;6145;50.192;10.064;2023-04-24T11:49:40;2.00;;;1.80;;
12163;SDS011;6145;50.192;10.064;2023-04-24T11:52:09;1.70;;;1.60;;
12163;SDS011;6145;50.192;10.064;2023-04-24T11:54:38;1.60;;;1.50;;
12163;SDS011;6145;50.192;10.064;2023-04-24T11:57:14;2.33;;;2.00;;
12163;SDS011;6145;50.192;10.064;2023-04-24T11:59:41;1.73;;;1.63;;
12163;SDS011;6145;50.192;10.064;2023-04-24T12:02:08;1.60;;;1.50;;
12163;SDS011;6145;50.192;10.064;2023-04-24T12:04:38;2.27;;;1.33;;
12163;SDS011;6145;50.192;10.064;2023-04-24T12:07:06;2.60;;;1.80;;
12163;SDS011;6145;50.192;10.064;2023-04-24T12:09:41;2.00;;;1.80;;
12163;SDS011;6145;50.192;10.064;2023-04-24T12:12:09;1.73;;;1.63;;
12163;SDS011;6145;50.192;10.064;2023-04-24T12:17:24;1.80;;;1.70;;
12163;SDS011;6145;50.192;10.064;2023-04-24T12:19:52;1.60;;;1.50;;
12163;SDS011;6145;50.192;10.064;2023-04-24T12:22:24;1.90;;;1.80;;
12163;SDS011;6145;50.192;10.064;2023-04-24T12:25:01;1.67;;;1.53;;
12163;SDS011;6145;50.192;10.064;2023-04-24T12:27:30;3.37;;;1.90;;
12163;SDS011;6145;50.192;10.064;2023-04-24T12:29:58;1.70;;;1.60;;
12163;SDS011;6145;50.192;10.064;2023-04-24T12:32:26;1.60;;;1.50;;
12163;SDS011;6145;50.192;10.064;2023-04-24T12:34:53;1.77;;;1.67;;
12163;SDS011;6145;50.192;10.064;2023-04-24T12:37:22;1.77;;;1.67;;
12163;SDS011;6145;50.192;10.064;2023-04-24T12:40:01;2.10;;;2.00;;
12163;SDS011;6145;50.192;10.064;2023-04-24T12:42:30;1.77;;;1.67;;
12163;SDS011;6145;50.192;10.064;2023-04-24T12:45:00;2.00;;;1.80;;
12163;SDS011;6145;50.192;10.064;2023-04-24T12:47:30;1.80;;;1.70;;
12163;SDS011;6145;50.192;10.064;2023-04-24T12:49:58;1.93;;;1.73;;
12163;SDS011;6145;50.192;10.064;2023-04-24T12:52:25;1.53;;;1.43;;
12163;SDS011;6145;50.192;10.064;2023-04-24T12:54:53;1.50;;;1.40;;
12163;SDS011;6145;50.192;10.064;2023-04-24T12:57:34;1.70;;;1.60;;
12163;SDS011;6145;50.192;10.064;2023-04-24T13:00:02;1.40;;;1.30;;
12163;SDS011;6145;50.192;10.064;2023-04-24T13:02:30;1.60;;;1.50;;
12163;SDS011;6145;50.192;10.064;2023-04-24T13:04:58;1.70;;;1.60;;
12163;SDS011;6145;50.192;10.064;2023-04-24T13:07:25;1.50;;;1.33;;
12163;SDS011;6145;50.192;10.064;2023-04-24T13:09:53;1.60;;;1.50;;
12163;SDS011;6145;50.192;10.064;2023-04-24T13:12:20;1.30;;;1.20;;
12163;SDS011;6145;50.192;10.064;2023-04-24T13:14:50;1.90;;;1.50;;
12163;SDS011;6145;50.192;10.064;2023-04-24T13:17:17;1.70;;;1.60;;
12163;SDS011;6145;50.192;10.064;2023-04-24T13:19:53;1.73;;;1.63;;
12163;SDS011;6145;50.192;10.064;2023-04-24T13:22:20;2.57;;;1.40;;
12163;SDS011;6145;50.192;10.064;2023-04-24T13:24:47;1.63;;;1.53;;
12163;SDS011;6145;50.192;10.064;2023-04-24T13:27:15;1.63;;;1.40;;
12163;SDS011;6145;50.192;10.064;2023-04-24T13:29:48;1.37;;;1.27;;
12163;SDS011;6145;50.192;10.064;2023-04-24T13:32:35;1.33;;;1.23;;
12163;SDS011;6145;50.192;10.064;2023-04-24T13:35:03;1.53;;;1.43;;
12163;SDS011;6145;50.192;10.064;2023-04-24T13:37:41;1.73;;;1.50;;
12163;SDS011;6145;50.192;10.064;2023-04-24T13:40:10;1.90;;;1.27;;
12163;SDS011;6145;50.192;10.064;2023-04-24T13:42:39;1.00;;;1.00;;
12163;SDS011;6145;50.192;10.064;2023-04-24T13:45:08;1.20;;;1.10;;
12163;SDS011;6145;50.192;10.064;2023-04-24T13:47:36;0.93;;;0.93;;
12163;SDS011;6145;50.192;10.064;2023-04-24T13:50:06;13.20;;;11.20;;
12163;SDS011;6145;50.192;10.064;2023-04-24T13:52:34;1.57;;;1.40;;
12163;SDS011;6145;50.192;10.064;2023-04-24T13:55:00;1.43;;;1.33;;
12163;SDS011;6145;50.192;10.064;2023-04-24T13:57:27;1.63;;;1.10;;
12163;SDS011;6145;50.192;10.064;2023-04-24T13:59:55;1.00;;;1.00;;
12163;SDS011;6145;50.192;10.064;2023-04-24T14:02:27;0.80;;;0.80;;
12163;SDS011;6145;50.192;10.064;2023-04-24T14:04:54;1.30;;;1.20;;
12163;SDS011;6145;50.192;10.064;2023-04-24T14:07:20;1.20;;;1.10;;
12163;SDS011;6145;50.192;10.064;2023-04-24T14:09:47;1.67;;;1.30;;
12163;SDS011;6145;50.192;10.064;2023-04-24T14:12:14;2.57;;;1.40;;
12163;SDS011;6145;50.192;10.064;2023-04-24T14:14:44;1.70;;;1.10;;
12163;SDS011;6145;50.192;10.064;2023-04-24T14:17:12;1.40;;;1.30;;
12163;SDS011;6145;50.192;10.064;2023-04-24T14:19:41;1.50;;;1.33;;
12163;SDS011;6145;50.192;10.064;2023-04-24T14:22:08;2.10;;;1.50;;
12163;SDS011;6145;50.192;10.064;2023-04-24T14:24:35;1.50;;;1.40;;
12163;SDS011;6145;50.192;10.064;2023-04-24T14:27:02;1.53;;;1.43;;
12163;SDS011;6145;50.192;10.064;2023-04-24T14:29:29;1.83;;;1.37;;
12163;SDS011;6145;50.192;10.064;2023-04-24T14:31:56;1.40;;;1.30;;
12163;SDS011;6145;50.192;10.064;2023-04-24T14:34:23;1.50;;;1.40;;
12163;SDS011;6145;50.192;10.064;2023-04-24T14:36:51;1.60;;;1.50;;
12163;SDS011;6145;50.192;10.064;2023-04-24T14:39:19;1.87;;;1.77;;
12163;SDS011;6145;50.192;10.064;2023-04-24T14:41:46;1.77;;;1.67;;
12163;SDS011;6145;50.192;10.064;2023-04-24T14:44:13;1.90;;;1.63;;
12163;SDS011;6145;50.192;10.064;2023-04-24T14:46:40;1.73;;;1.47;;
12163;SDS011;6145;50.192;10.064;2023-04-24T14:49:07;3.13;;;1.97;;
12163;SDS011;6145;50.192;10.064;2023-04-24T14:51:41;1.87;;;1.77;;
12163;SDS011;6145;50.192;10.064;2023-04-24T14:54:10;2.53;;;1.30;;
12163;SDS011;6145;50.192;10.064;2023-04-24T14:56:38;1.30;;;1.20;;
12163;SDS011;6145;50.192;10.064;2023-04-24T14:59:06;1.60;;;1.40;;
12163;SDS011;6145;50.192;10.064;2023-04-24T15:01:33;1.70;;;1.20;;